createdAt,value
2022-09-01T11:33:06.596Z,59.2
2022-09-01T11:34:22.802Z,58.7
2022-09-01T13:48:36.796Z,46.8
2022-09-01T13:49:52.028Z,43.6
2022-09-01T13:51:08.267Z,44.8
2022-09-01T13:52:24.509Z,46.6
2022-09-01T13:53:40.762Z,47.8
2022-09-01T13:54:56.983Z,48.9
2022-09-01T13:56:13.248Z,47
2022-09-01T13:57:29.472Z,45.7
2022-09-01T13:58:45.710Z,47.5
2022-09-01T14:00:01.940Z,48.1
2022-09-01T14:01:18.182Z,46.6
2022-09-01T14:02:34.437Z,45.3
2022-09-01T14:03:50.669Z,46.3
2022-09-01T14:05:06.904Z,45
2022-09-01T14:06:23.151Z,45.3
2022-09-01T14:07:39.393Z,46.9
2022-09-01T14:08:55.636Z,45.6
2022-09-01T14:10:11.867Z,47.2
2022-09-01T14:11:28.108Z,46.1
2022-09-01T14:12:44.332Z,47.9
2022-09-01T14:13:59.593Z,46.2
2022-09-01T14:15:14.847Z,48.7
2022-09-01T14:16:31.097Z,46.7
2022-09-01T14:17:47.330Z,45.9
2022-09-01T14:19:03.577Z,47
2022-09-01T14:20:19.813Z,48.1
2022-09-01T14:21:36.072Z,46.1
2022-09-01T14:22:51.322Z,48
2022-09-01T14:24:06.585Z,47.8
2022-09-01T14:25:21.829Z,47
2022-09-01T14:26:37.089Z,46.9
2022-09-01T14:27:52.350Z,48.2
2022-09-01T14:29:07.604Z,47.7
2022-09-01T14:30:23.834Z,48.7
2022-09-01T14:31:40.080Z,48.5
2022-09-01T14:32:56.315Z,49.2
2022-09-01T14:34:12.567Z,47.1
2022-09-01T14:35:28.799Z,46.3
2022-09-01T14:36:45.035Z,48.6
2022-09-01T14:38:01.265Z,47.9
2022-09-01T14:39:17.504Z,48.9
2022-09-01T14:40:33.746Z,48.2
2022-09-01T14:41:49.992Z,47.6
2022-09-01T14:43:06.227Z,49.3
2022-09-01T14:44:22.474Z,48.1
2022-09-01T14:45:37.727Z,46.9
2022-09-01T14:46:53.965Z,49.3
2022-09-01T14:48:10.198Z,51.1
2022-09-01T14:49:26.458Z,50.1
2022-09-01T14:50:42.689Z,49.2
2022-09-01T14:51:58.918Z,49.8
2022-09-01T14:53:15.164Z,48.7
2022-09-01T14:54:30.419Z,49.3
2022-09-01T14:55:45.667Z,50.7
2022-09-01T14:57:01.935Z,48.3
2022-09-01T14:58:18.162Z,49.1
2022-09-01T14:59:34.390Z,50.1
2022-09-01T15:00:50.643Z,50.8
2022-09-01T15:02:06.876Z,49.8
2022-09-01T15:03:23.123Z,49.9
2022-09-01T15:04:39.350Z,51.7
2022-09-01T15:05:55.589Z,49.9
2022-09-01T15:07:11.830Z,49.1
2022-09-01T15:08:28.076Z,51.1
2022-09-01T15:09:44.305Z,49.2
2022-09-01T15:11:00.537Z,51.8
2022-09-01T15:12:15.793Z,50.5
2022-09-01T15:13:32.043Z,53.2
2022-09-01T15:14:48.285Z,51
2022-09-01T15:16:04.521Z,50.2
2022-09-01T15:17:20.763Z,51.3
2022-09-01T15:18:36.993Z,52.4
2022-09-01T15:19:53.239Z,51.7
2022-09-01T15:21:08.490Z,53.3
2022-09-01T15:22:23.762Z,52.5
2022-09-01T15:23:39.013Z,52.6
2022-09-01T15:24:54.285Z,53.4
2022-09-01T15:26:10.519Z,53
2022-09-01T15:27:26.751Z,50.6
2022-09-01T15:28:42.976Z,52
2022-09-01T15:29:59.229Z,52.7
2022-09-01T15:31:15.469Z,52.2
2022-09-01T15:32:31.711Z,51
2022-09-01T15:33:47.953Z,52.4
2022-09-01T15:35:04.187Z,51.4
2022-09-01T15:36:20.441Z,52.3
2022-09-01T15:37:36.666Z,53.3
2022-09-01T15:38:52.906Z,52.3
2022-09-01T15:40:09.133Z,50
2022-09-01T15:41:24.404Z,50.8
2022-09-01T15:42:40.642Z,48.6
2022-09-01T15:43:56.877Z,51
2022-09-01T15:45:13.120Z,50.6
2022-09-01T15:46:29.359Z,50.9
2022-09-01T15:47:45.603Z,49.8
2022-09-01T15:49:01.845Z,50.7
2022-09-01T15:50:17.086Z,51.8
2022-09-01T15:51:32.338Z,51.1
2022-09-01T15:52:47.613Z,51.3
2022-09-01T15:54:02.867Z,51.3
2022-09-01T15:55:19.093Z,52.3
2022-09-01T15:56:35.346Z,52.9
2022-09-01T15:57:51.596Z,52.7
2022-09-01T15:59:07.824Z,51.6
2022-09-01T16:00:23.089Z,52.9
2022-09-01T16:01:38.332Z,53.9
2022-09-01T16:02:54.572Z,52.6
2022-09-01T16:04:10.808Z,53.5
2022-09-01T16:05:27.069Z,53.3
2022-09-01T16:06:43.286Z,55.4
2022-09-01T16:09:15.780Z,54.3
2022-09-01T16:11:48.266Z,54.7
2022-09-01T16:13:04.499Z,53.6
2022-09-01T16:14:20.723Z,53.3
2022-09-01T16:15:36.966Z,54
2022-09-01T16:16:52.225Z,53.3
2022-09-01T16:18:07.480Z,51.7
2022-09-01T16:19:22.743Z,53.3
2022-09-01T16:20:37.999Z,53.4
2022-09-01T16:21:54.237Z,52.8
2022-09-01T16:23:10.473Z,52.9
2022-09-01T16:24:26.703Z,52.6
2022-09-01T16:25:42.960Z,52.6
2022-09-01T16:26:59.201Z,52.5
2022-09-01T16:28:15.435Z,52.9
2022-09-01T16:29:31.663Z,53
2022-09-01T16:30:47.909Z,52.8
2022-09-01T16:32:04.151Z,53.2
2022-09-01T16:34:35.638Z,53.1
2022-09-01T16:35:50.913Z,53
2022-09-01T16:37:07.134Z,53.2
2022-09-01T16:38:23.398Z,54
2022-09-01T16:39:39.629Z,53.9
2022-09-01T16:40:55.865Z,54.9
2022-09-01T16:42:12.109Z,53.4
2022-09-01T16:43:28.339Z,53.7
2022-09-01T16:44:44.578Z,54.8
2022-09-01T16:46:00.808Z,55.9
2022-09-01T16:47:16.077Z,53.9
2022-09-01T16:48:31.333Z,55.8
2022-09-01T16:49:46.606Z,56.1
2022-09-01T16:51:01.839Z,54.1
2022-09-01T16:52:18.092Z,54
2022-09-01T16:53:34.328Z,56.1
2022-09-01T16:54:50.558Z,56.5
2022-09-01T16:56:06.809Z,54.4
2022-09-01T16:57:23.050Z,55.5
2022-09-01T16:58:39.275Z,56.6
2022-09-01T16:59:55.534Z,56.5
2022-09-01T17:01:11.762Z,55.3
2022-09-01T17:02:27.993Z,55.3
2022-09-01T17:03:44.259Z,56.4
2022-09-01T17:05:00.495Z,57
2022-09-01T17:06:16.722Z,56.6
2022-09-01T17:07:31.979Z,58.6
2022-09-01T17:08:48.224Z,57
2022-09-01T17:10:04.460Z,57.1
2022-09-01T17:11:20.686Z,57
2022-09-01T17:12:36.915Z,57.1
2022-09-01T17:13:53.151Z,56.6
2022-09-01T17:15:09.418Z,57.6
2022-09-01T17:16:24.664Z,56.7
2022-09-01T17:17:39.929Z,57.5
2022-09-01T17:18:55.161Z,57.8
2022-09-01T17:20:10.431Z,58.3
2022-09-01T17:21:26.687Z,57.1
2022-09-01T17:22:42.915Z,58
2022-09-01T17:23:59.159Z,56.9
2022-09-01T17:25:15.404Z,58
2022-09-01T17:26:31.624Z,57.1
2022-09-01T17:27:47.867Z,58.8
2022-09-01T17:29:04.091Z,58.9
2022-09-01T17:30:20.332Z,58
2022-09-01T17:31:36.589Z,58.9
2022-09-01T17:32:52.837Z,59.3
2022-09-01T17:34:09.065Z,60.2
2022-09-01T17:35:25.303Z,58.1
2022-09-01T17:36:40.553Z,59.8
2022-09-01T17:37:56.794Z,60.4
2022-09-01T17:39:13.021Z,60.1
2022-09-01T17:40:29.267Z,59.1
2022-09-01T17:41:45.501Z,60.5
2022-09-01T17:43:01.750Z,60
2022-09-01T17:44:17.986Z,61.5
2022-09-01T17:45:33.239Z,62.5
2022-09-01T17:46:48.526Z,63.4
2022-09-01T17:48:04.755Z,63.5
2022-09-01T17:49:20.980Z,62.9
2022-09-01T17:50:37.214Z,63.9
2022-09-01T17:51:53.462Z,63.6
2022-09-01T17:53:09.701Z,63.9
2022-09-01T17:54:25.943Z,63.4
2022-09-01T17:55:42.180Z,64.4
2022-09-01T17:56:58.419Z,63.6
2022-09-01T17:58:14.680Z,63.5
2022-09-01T17:59:30.911Z,64.7
2022-09-01T18:00:47.129Z,64.8
2022-09-01T18:02:03.359Z,64.8
2022-09-01T18:03:18.632Z,66.5
2022-09-01T18:04:34.867Z,65.4
2022-09-01T18:07:07.335Z,66.4
2022-09-01T18:08:22.608Z,65.3
2022-09-01T18:09:38.836Z,66.2
2022-09-01T18:10:55.084Z,65.5
2022-09-01T18:12:11.314Z,66.7
2022-09-01T18:17:15.297Z,66.8
2022-09-01T18:18:31.535Z,67
2022-09-01T18:19:46.809Z,66.8
2022-09-01T18:21:03.036Z,65.8
2022-09-01T18:22:18.285Z,66.5
2022-09-01T18:28:39.497Z,68.5
2022-09-01T18:29:54.758Z,68.8
2022-09-01T18:31:10.984Z,69.5
2022-09-01T18:32:27.239Z,68.6
2022-09-01T18:34:59.718Z,68.5
2022-09-01T18:36:15.940Z,69.6
2022-09-01T18:37:32.182Z,70.2
2022-09-01T18:40:04.664Z,70.4
2022-09-01T18:50:14.573Z,71.5
2022-09-01T18:51:29.831Z,71.8
2022-09-01T18:52:48.149Z,72.1
2022-09-01T18:54:01.338Z,72.3
2022-09-01T18:57:49.061Z,72.7
2022-09-01T19:02:54.016Z,73
2022-09-01T19:09:15.170Z,73
2022-09-01T19:11:47.690Z,73.6
2022-09-01T19:13:34.524Z,73.7
2022-09-01T19:14:20.170Z,74
2022-09-01T19:25:45.342Z,74.6
2022-09-01T19:27:01.590Z,75
2022-09-01T19:28:17.834Z,75.5
2022-09-01T19:29:34.066Z,76.1
2022-09-01T19:30:50.299Z,75.2
2022-09-01T19:32:05.568Z,75.5
2022-09-01T19:33:21.797Z,74.9
2022-09-01T19:35:54.272Z,75.2
2022-09-01T19:39:42.999Z,75.3
2022-09-01T19:40:59.232Z,76.1
2022-09-01T19:47:20.423Z,75.2
2022-09-01T19:48:36.668Z,76
2022-09-01T19:49:52.911Z,75.8
2022-09-01T19:52:24.398Z,76.7
2022-09-01T19:53:39.665Z,76.7
2022-09-01T19:54:55.909Z,75.9
2022-09-01T19:57:27.410Z,76.7
2022-09-01T19:59:59.879Z,77.7
2022-09-01T20:01:16.116Z,76.7
2022-09-01T20:07:37.305Z,77.5
2022-09-01T20:11:25.067Z,77.1
2022-09-01T20:17:45.278Z,77.9
2022-09-01T20:21:33.005Z,78
2022-09-01T20:22:49.252Z,78.2
2022-09-01T20:26:37.972Z,78.9
2022-09-01T20:27:54.215Z,78.7
2022-09-01T20:31:42.935Z,79.8
2022-09-01T20:39:20.365Z,79.9
2022-09-01T20:41:52.854Z,80.3
2022-09-01T20:48:29.358Z,81
2022-09-01T20:52:02.773Z,81
2022-09-01T20:54:35.251Z,81.7
2022-09-01T20:58:23.966Z,82.4
2022-09-01T20:59:39.204Z,81.9
2022-09-01T21:00:55.451Z,81.9
2022-09-01T21:02:11.689Z,82.7
2022-09-01T21:03:26.958Z,82.5
2022-09-01T21:04:42.224Z,82.3
2022-09-01T21:07:14.685Z,83
2022-09-01T21:12:19.650Z,83.3
2022-09-01T21:14:51.153Z,82.1
2022-09-01T21:16:06.415Z,82.6
2022-09-01T21:17:22.647Z,83.2
2022-09-01T21:19:55.120Z,82.9
2022-09-01T21:21:10.388Z,82.8
2022-09-01T21:25:57.353Z,82.9
2022-09-01T21:26:15.340Z,83.1
2022-09-01T21:27:30.590Z,82.7
2022-09-01T21:28:45.850Z,83
2022-09-01T21:30:01.127Z,83.1
2022-09-01T21:36:22.314Z,84.1
2022-09-01T21:37:37.581Z,83.8
2022-09-01T21:38:53.811Z,84
2022-09-01T21:40:10.040Z,83.9
2022-09-01T21:41:26.291Z,84.1
2022-09-01T21:42:42.538Z,83.3
2022-09-01T21:43:58.778Z,83.6
2022-09-01T21:47:47.468Z,84.2
2022-09-01T21:49:03.710Z,83.8
2022-09-01T21:51:36.206Z,83.2
2022-09-01T21:52:52.448Z,84
2022-09-01T21:55:24.929Z,83
2022-09-01T21:56:41.151Z,83.9
2022-09-01T21:57:57.408Z,83.7
2022-09-01T21:59:12.661Z,83.1
2022-09-01T22:00:28.889Z,83
2022-09-01T22:01:45.124Z,83.3
2022-09-01T22:03:01.364Z,84
2022-09-01T22:04:17.608Z,83.9
2022-09-01T22:05:33.864Z,84.2
2022-09-01T22:06:50.084Z,83.9
2022-09-01T22:08:06.333Z,84.8
2022-09-01T22:09:22.577Z,84.5
2022-09-01T22:10:37.839Z,84.5
2022-09-01T22:16:59.028Z,84.3
2022-09-01T22:18:14.284Z,83.5
2022-09-01T22:20:46.753Z,84.5
2022-09-01T22:22:03.010Z,84.4
2022-09-01T22:29:40.433Z,84.8
2022-09-01T22:33:28.182Z,85.3
2022-09-01T22:36:00.650Z,84.6
2022-09-01T22:37:15.906Z,85.4
2022-09-01T22:38:32.138Z,85.8
2022-09-01T22:39:48.396Z,84.8
2022-09-01T22:41:04.615Z,85.6
2022-09-01T22:42:20.871Z,85.2
2022-09-01T22:46:09.575Z,84.2
2022-09-01T22:47:25.814Z,84.3
2022-09-01T22:53:47.031Z,85.6
2022-09-01T23:00:08.000Z,86
2022-09-01T23:01:23.470Z,86.3
2022-09-01T23:02:39.717Z,86.1
2022-09-01T23:03:55.963Z,86.2
2022-09-01T23:09:00.928Z,85.7
2022-09-01T23:11:33.414Z,86
2022-09-01T23:12:49.631Z,86.8
2022-09-01T23:16:38.349Z,86.9
2022-09-01T23:17:53.611Z,86.6
2022-09-01T23:19:09.846Z,86.4
2022-09-01T23:22:57.584Z,86.3
2022-09-01T23:24:13.833Z,86.9
2022-09-01T23:26:46.299Z,87
2022-09-01T23:28:02.550Z,86
2022-09-01T23:29:18.782Z,87.1
2022-09-01T23:30:35.015Z,87.3
2022-09-01T23:34:23.765Z,87
2022-09-01T23:35:39.981Z,87.8
2022-09-01T23:36:56.245Z,87.7
2022-09-01T23:40:44.934Z,87.8
2022-09-01T23:42:01.176Z,87.7
2022-09-01T23:43:16.441Z,87.7
2022-09-01T23:44:31.701Z,87.5
2022-09-01T23:48:20.407Z,87.5
2022-09-01T23:49:36.661Z,87.7
2022-09-01T23:52:09.137Z,87.8
2022-09-01T23:55:57.857Z,88.3
2022-09-01T23:57:14.091Z,88.1
2022-09-01T23:58:30.330Z,87.1
2022-09-01T23:59:46.566Z,87.2
